createdAt,value
2018-06-03T00:02:13.335Z,89.27
2018-06-03T00:04:42.096Z,92.13
2018-06-03T00:07:10.895Z,94.37
2018-06-03T00:09:39.690Z,88.83
2018-06-03T00:12:08.433Z,86.90
2018-06-03T00:14:37.219Z,84.60
2018-06-03T00:17:05.999Z,97.80
2018-06-03T00:19:34.816Z,90.67
2018-06-03T00:22:03.277Z,98.20
2018-06-03T00:24:32.145Z,97.80
2018-06-03T00:27:00.985Z,104.93
2018-06-03T00:29:29.373Z,106.67
2018-06-03T00:31:57.782Z,96.87
2018-06-03T00:34:27.835Z,97.53
2018-06-03T00:36:56.648Z,98.13
2018-06-03T00:39:25.469Z,95.83
2018-06-03T00:41:54.225Z,98.73
2018-06-03T00:44:22.997Z,100.20
2018-06-03T00:46:51.771Z,108.10
2018-06-03T00:49:20.624Z,98.97
2018-06-03T00:51:49.457Z,100.47
2018-06-03T00:54:18.247Z,102.00
2018-06-03T00:57:21.045Z,96.43
2018-06-03T00:59:49.873Z,108.20
2018-06-03T01:02:18.681Z,108.13
2018-06-03T01:04:47.461Z,103.93
2018-06-03T01:07:16.307Z,95.50
2018-06-03T01:09:45.116Z,101.43
2018-06-03T01:12:13.927Z,100.73
2018-06-03T01:14:42.801Z,106.23
2018-06-03T01:17:11.571Z,119.27
2018-06-03T01:19:40.389Z,108.93
2018-06-03T01:22:09.197Z,111.67
2018-06-03T01:24:37.991Z,108.83
2018-06-03T01:27:06.802Z,111.47
2018-06-03T01:29:35.574Z,116.40
2018-06-03T01:32:04.935Z,107.17
2018-06-03T01:34:33.738Z,98.03
2018-06-03T01:37:02.548Z,96.43
2018-06-03T01:39:31.423Z,95.47
2018-06-03T01:42:00.247Z,111.57
2018-06-03T01:44:29.111Z,113.33
2018-06-03T01:46:57.917Z,117.40
2018-06-03T01:49:26.707Z,107.57
2018-06-03T01:51:56.437Z,104.67
2018-06-03T01:54:25.253Z,106.67
2018-06-03T01:56:54.113Z,98.60
2018-06-03T01:59:23.018Z,109.13
2018-06-03T02:01:51.848Z,103.33
2018-06-03T02:04:20.605Z,96.40
2018-06-03T02:06:49.419Z,102.27
2018-06-03T02:09:18.186Z,103.87
2018-06-03T02:11:46.982Z,105.40
2018-06-03T02:14:15.808Z,107.57
2018-06-03T02:16:44.652Z,109.13
2018-06-03T02:19:13.532Z,107.33
2018-06-03T02:21:42.339Z,106.83
2018-06-03T02:24:11.223Z,112.10
2018-06-03T02:26:40.005Z,111.80
2018-06-03T02:29:08.823Z,103.43
2018-06-03T02:31:37.630Z,104.40
2018-06-03T02:34:06.479Z,102.27
2018-06-03T02:36:35.275Z,102.17
2018-06-03T02:39:05.513Z,104.07
2018-06-03T02:41:34.300Z,105.63
2018-06-03T02:44:03.097Z,102.07
2018-06-03T02:46:31.949Z,109.57
2018-06-03T02:49:00.772Z,104.93
2018-06-03T02:51:29.599Z,108.40
2018-06-03T02:53:58.416Z,105.20
2018-06-03T02:56:27.292Z,111.00
2018-06-03T02:58:56.192Z,102.57
2018-06-03T03:01:25.016Z,111.73
2018-06-03T03:03:53.878Z,116.70
2018-06-03T03:06:22.669Z,119.63
2018-06-03T03:08:51.429Z,125.30
2018-06-03T03:11:20.194Z,120.30
2018-06-03T03:13:48.967Z,119.87
2018-06-03T03:16:17.759Z,121.00
2018-06-03T03:18:46.584Z,118.73
2018-06-03T03:21:15.433Z,121.13
2018-06-03T03:23:44.273Z,122.17
2018-06-03T03:26:13.079Z,119.43
2018-06-03T03:28:42.149Z,117.90
2018-06-03T03:31:11.046Z,114.93
2018-06-03T03:33:39.848Z,119.07
2018-06-03T03:36:08.612Z,120.20
2018-06-03T03:38:37.404Z,121.50
2018-06-03T03:41:06.176Z,119.23
2018-06-03T03:43:34.995Z,113.33
2018-06-03T03:46:03.769Z,117.53
2018-06-03T03:48:32.210Z,116.70
2018-06-03T03:51:01.047Z,111.30
2018-06-03T03:53:29.936Z,109.97
2018-06-03T03:55:58.782Z,111.27
2018-06-03T03:58:27.582Z,102.27
2018-06-03T04:00:56.375Z,118.10
2018-06-03T04:03:25.106Z,113.67
2018-06-03T04:05:53.899Z,116.80
2018-06-03T04:08:22.669Z,117.10
2018-06-03T04:10:52.450Z,110.03
2018-06-03T04:13:21.263Z,107.03
2018-06-03T04:15:50.074Z,116.60
2018-06-03T04:18:18.861Z,117.03
2018-06-03T04:20:47.673Z,118.33
2018-06-03T04:23:16.430Z,117.73
2018-06-03T04:25:45.225Z,122.07
2018-06-03T04:28:14.752Z,116.13
2018-06-03T04:30:43.566Z,124.67
2018-06-03T04:33:12.468Z,116.23
2018-06-03T04:35:41.260Z,117.90
2018-06-03T04:38:10.074Z,124.13
2018-06-03T04:40:38.916Z,116.63
2018-06-03T04:43:07.727Z,127.43
2018-06-03T04:45:36.447Z,119.83
2018-06-03T04:48:04.865Z,125.33
2018-06-03T04:50:33.677Z,116.60
2018-06-03T04:53:02.470Z,124.07
2018-06-03T04:55:31.325Z,113.07
2018-06-03T04:58:00.102Z,121.77
2018-06-03T05:00:28.882Z,124.27
2018-06-03T05:02:57.669Z,116.97
2018-06-03T05:05:26.745Z,126.10
2018-06-03T05:07:55.598Z,112.13
2018-06-03T05:10:24.394Z,104.93
2018-06-03T05:12:53.226Z,106.87
2018-06-03T05:15:22.000Z,110.00
2018-06-03T05:17:50.778Z,102.57
2018-06-03T05:20:19.554Z,94.30
2018-06-03T05:22:48.334Z,91.53
2018-06-03T05:25:17.058Z,87.60
2018-06-03T05:27:45.800Z,87.77
2018-06-03T05:30:14.549Z,84.00
2018-06-03T05:32:43.357Z,79.47
2018-06-03T05:35:12.237Z,76.50
2018-06-03T05:37:41.051Z,66.40
2018-06-03T05:40:09.895Z,61.17
2018-06-03T05:42:38.781Z,57.17
2018-06-03T05:45:07.620Z,55.13
2018-06-03T05:47:36.538Z,48.10
2018-06-03T05:50:05.380Z,43.93
2018-06-03T05:52:34.237Z,46.67
2018-06-03T05:55:03.097Z,46.23
2018-06-03T05:57:31.950Z,42.37
2018-06-03T06:00:00.914Z,41.40
2018-06-03T06:02:29.904Z,40.80
2018-06-03T06:04:58.702Z,43.87
2018-06-03T06:07:27.558Z,39.10
2018-06-03T06:09:56.348Z,39.97
2018-06-03T06:12:25.233Z,40.20
2018-06-03T06:14:54.147Z,36.90
2018-06-03T06:17:23.019Z,41.03
2018-06-03T06:19:51.847Z,39.93
2018-06-03T06:22:20.643Z,36.67
2018-06-03T06:24:49.461Z,39.00
2018-06-03T06:27:18.331Z,35.73
2018-06-03T06:29:47.066Z,35.97
2018-06-03T06:32:15.886Z,34.80
2018-06-03T06:34:44.673Z,36.13
2018-06-03T06:37:13.417Z,37.93
2018-06-03T06:39:42.224Z,39.23
2018-06-03T06:42:10.984Z,38.67
2018-06-03T06:44:39.725Z,39.33
2018-06-03T06:47:08.536Z,41.90
2018-06-03T06:49:37.324Z,36.17
2018-06-03T06:52:06.609Z,39.87
2018-06-03T06:54:35.488Z,42.07
2018-06-03T06:57:04.266Z,43.00
2018-06-03T06:59:33.044Z,41.73
2018-06-03T07:02:01.905Z,43.17
2018-06-03T07:04:30.683Z,46.17
2018-06-03T07:06:59.458Z,42.93
2018-06-03T07:09:28.231Z,50.77
2018-06-03T07:11:57.046Z,48.90
2018-06-03T07:14:25.885Z,43.93
2018-06-03T07:16:54.834Z,47.83
2018-06-03T07:19:23.289Z,48.67
2018-06-03T07:21:52.650Z,49.63
2018-06-03T07:24:22.100Z,50.37
2018-06-03T07:26:50.855Z,47.17
2018-06-03T07:29:19.583Z,45.60
2018-06-03T07:31:48.352Z,46.50
2018-06-03T07:34:17.266Z,45.97
2018-06-03T07:36:46.075Z,46.40
2018-06-03T07:39:14.915Z,45.87
2018-06-03T07:41:43.713Z,48.57
2018-06-03T07:44:13.269Z,49.90
2018-06-03T07:46:42.102Z,44.93
2018-06-03T07:49:10.971Z,49.87
2018-06-03T07:51:39.761Z,48.97
2018-06-03T07:54:08.560Z,47.87
2018-06-03T07:56:36.947Z,48.40
2018-06-03T07:59:05.797Z,50.77
2018-06-03T08:01:34.652Z,49.43
2018-06-03T08:04:03.440Z,55.17
2018-06-03T08:06:32.312Z,49.53
2018-06-03T08:09:00.697Z,48.80
2018-06-03T08:11:29.474Z,48.13
2018-06-03T08:13:58.950Z,50.43
2018-06-03T08:16:27.695Z,50.03
2018-06-03T08:18:56.473Z,47.87
2018-06-03T08:21:25.258Z,45.77
2018-06-03T08:23:54.082Z,49.00
2018-06-03T08:26:22.886Z,49.20
2018-06-03T08:28:51.676Z,46.67
2018-06-03T08:31:20.486Z,49.60
2018-06-03T08:33:49.265Z,55.23
2018-06-03T08:36:18.091Z,50.90
2018-06-03T08:38:46.869Z,48.77
2018-06-03T08:41:15.646Z,50.27
2018-06-03T08:43:44.428Z,49.60
2018-06-03T08:46:14.078Z,50.87
2018-06-03T08:48:42.882Z,50.10
2018-06-03T08:51:11.643Z,47.70
2018-06-03T08:53:40.480Z,46.30
2018-06-03T08:56:09.252Z,48.00
2018-06-03T08:58:38.039Z,46.10
2018-06-03T09:01:06.819Z,43.93
2018-06-03T09:03:35.680Z,47.60
2018-06-03T09:06:04.466Z,45.80
2018-06-03T09:08:33.349Z,48.53
2018-06-03T09:11:02.153Z,44.63
2018-06-03T09:13:30.937Z,51.23
2018-06-03T09:15:59.710Z,48.80
2018-06-03T09:18:28.524Z,47.80
2018-06-03T09:20:57.355Z,41.87
2018-06-03T09:23:26.181Z,45.60
2018-06-03T09:25:54.935Z,47.43
2018-06-03T09:28:23.752Z,47.73
2018-06-03T09:30:56.784Z,47.83
2018-06-03T09:33:25.624Z,44.03
2018-06-03T09:35:54.476Z,45.87
2018-06-03T09:38:23.254Z,45.17
2018-06-03T09:40:52.076Z,47.30
2018-06-03T09:43:20.852Z,52.10
2018-06-03T09:45:49.640Z,49.43
2018-06-03T09:48:18.724Z,51.83
2018-06-03T09:50:47.497Z,54.60
2018-06-03T09:53:16.354Z,52.10
2018-06-03T09:55:44.741Z,55.00
2018-06-03T09:58:13.618Z,53.23
2018-06-03T10:00:42.421Z,53.67
2018-06-03T10:03:11.193Z,49.43
2018-06-03T10:05:40.013Z,45.77
2018-06-03T10:08:08.823Z,49.20
2018-06-03T10:10:37.632Z,51.23
2018-06-03T10:13:06.463Z,49.40
2018-06-03T10:15:35.826Z,54.90
2018-06-03T10:18:05.229Z,55.23
2018-06-03T10:20:34.072Z,51.20
2018-06-03T10:23:02.487Z,50.10
2018-06-03T10:25:31.316Z,44.03
2018-06-03T10:28:00.109Z,44.67
2018-06-03T10:30:28.884Z,46.53
2018-06-03T10:32:57.793Z,48.47
2018-06-03T10:35:26.653Z,48.93
2018-06-03T10:37:55.467Z,49.10
2018-06-03T10:40:24.336Z,48.50
2018-06-03T10:42:53.142Z,47.17
2018-06-03T10:45:21.987Z,46.47
2018-06-03T10:47:50.370Z,48.23
2018-06-03T10:50:19.176Z,47.60
2018-06-03T10:52:47.971Z,48.67
2018-06-03T10:55:16.786Z,47.87
2018-06-03T10:57:45.631Z,42.17
2018-06-03T11:00:14.448Z,39.53
2018-06-03T11:02:43.334Z,39.47
2018-06-03T11:05:12.142Z,39.07
2018-06-03T11:07:40.908Z,38.10
2018-06-03T11:10:09.688Z,38.57
2018-06-03T11:12:38.480Z,34.83
2018-06-03T11:15:07.251Z,35.63
2018-06-03T11:17:36.080Z,35.87
2018-06-03T11:20:04.873Z,35.10
2018-06-03T11:22:34.308Z,33.70
2018-06-03T11:25:03.061Z,37.57
2018-06-03T11:27:31.920Z,32.50
2018-06-03T11:30:00.740Z,34.67
2018-06-03T11:32:29.583Z,31.43
2018-06-03T11:34:58.336Z,32.87
2018-06-03T11:37:27.199Z,27.37
2018-06-03T11:39:55.978Z,30.77
2018-06-03T11:42:24.752Z,28.20
2018-06-03T11:44:53.616Z,32.73
2018-06-03T11:47:22.379Z,33.63
2018-06-03T11:49:51.125Z,33.43
2018-06-03T11:52:19.983Z,33.67
2018-06-03T11:54:48.386Z,34.70
2018-06-03T11:57:17.181Z,32.63
2018-06-03T11:59:46.012Z,33.77
2018-06-03T12:02:18.719Z,32.23
2018-06-03T12:04:47.507Z,32.87
2018-06-03T12:07:16.302Z,35.00
2018-06-03T12:09:45.109Z,33.50
2018-06-03T12:12:13.872Z,31.17
2018-06-03T12:14:42.693Z,32.40
2018-06-03T12:17:11.503Z,30.60
2018-06-03T12:19:39.913Z,25.73
2018-06-03T12:22:08.772Z,27.67
2018-06-03T12:24:37.567Z,25.90
2018-06-03T12:27:06.431Z,25.37
2018-06-03T12:29:35.282Z,26.93
2018-06-03T12:32:04.108Z,27.10
2018-06-03T12:34:32.929Z,26.83
2018-06-03T12:37:01.743Z,26.37
2018-06-03T12:39:30.562Z,21.60
2018-06-03T12:41:59.384Z,16.40
2018-06-03T12:44:28.237Z,12.77
2018-06-03T12:46:57.004Z,8.73
2018-06-03T12:49:25.390Z,11.00
2018-06-03T12:51:54.167Z,11.93
2018-06-03T12:54:22.991Z,14.83
2018-06-03T12:56:51.769Z,14.20
2018-06-03T12:59:20.564Z,14.70
2018-06-03T13:01:49.341Z,14.37
2018-06-03T13:04:19.047Z,16.57
2018-06-03T13:06:47.911Z,14.37
2018-06-03T13:09:16.767Z,13.87
2018-06-03T13:11:45.538Z,14.13
2018-06-03T13:14:13.998Z,15.23
2018-06-03T13:16:42.858Z,16.40
2018-06-03T13:19:11.639Z,16.10
2018-06-03T13:21:40.414Z,16.57
2018-06-03T13:24:09.230Z,15.13
2018-06-03T13:26:38.278Z,17.50
2018-06-03T13:29:07.160Z,19.47
2018-06-03T13:31:35.942Z,18.17
2018-06-03T13:34:05.065Z,17.23
2018-06-03T13:36:34.087Z,17.23
2018-06-03T13:39:02.959Z,16.87
2018-06-03T13:41:31.791Z,16.43
2018-06-03T13:44:00.593Z,17.23
2018-06-03T13:46:29.447Z,21.27
2018-06-03T13:48:58.232Z,19.87
2018-06-03T13:51:27.061Z,23.40
2018-06-03T13:53:55.852Z,18.93
2018-06-03T13:56:24.670Z,20.50
2018-06-03T13:58:53.464Z,19.77
2018-06-03T14:01:22.282Z,19.50
2018-06-03T14:03:51.072Z,20.37
2018-06-03T14:06:19.894Z,18.37
2018-06-03T14:08:48.653Z,17.83
2018-06-03T14:11:17.654Z,21.33
2018-06-03T14:13:46.475Z,17.87
2018-06-03T14:16:15.307Z,16.73
2018-06-03T14:18:44.113Z,16.27
2018-06-03T14:21:12.873Z,17.53
2018-06-03T14:23:41.701Z,16.00
2018-06-03T14:26:10.661Z,16.30
2018-06-03T14:28:40.297Z,15.23
2018-06-03T14:31:09.083Z,16.87
2018-06-03T14:33:37.865Z,17.00
2018-06-03T14:36:06.637Z,15.63
2018-06-03T14:38:35.406Z,14.37
2018-06-03T14:41:04.187Z,14.13
2018-06-03T14:43:33.012Z,14.53
2018-06-03T14:46:01.885Z,15.93
2018-06-03T14:48:30.682Z,15.57
2018-06-03T14:50:59.498Z,15.33
2018-06-03T14:53:28.299Z,15.50
2018-06-03T14:55:57.035Z,14.07
2018-06-03T14:58:25.764Z,17.77
2018-06-03T15:00:54.543Z,15.83
2018-06-03T15:03:23.423Z,16.37
2018-06-03T15:05:52.199Z,13.53
2018-06-03T15:08:21.064Z,13.50
2018-06-03T15:10:49.867Z,14.33
2018-06-03T15:13:18.686Z,12.93
2018-06-03T15:15:47.449Z,15.03
2018-06-03T15:18:16.280Z,13.83
2018-06-03T15:21:34.115Z,14.20
2018-06-03T15:24:02.943Z,16.87
2018-06-03T15:26:31.790Z,14.80
2018-06-03T15:29:00.585Z,13.20
2018-06-03T15:31:29.376Z,12.80
2018-06-03T15:33:58.207Z,14.83
2018-06-03T15:36:27.003Z,12.10
2018-06-03T15:38:55.756Z,13.07
2018-06-03T15:41:25.195Z,12.00
2018-06-03T15:43:54.031Z,12.57
2018-06-03T15:46:22.852Z,13.63
2018-06-03T15:48:51.658Z,13.00
2018-06-03T15:51:20.451Z,10.33
2018-06-03T15:53:49.319Z,13.33
2018-06-03T15:56:18.107Z,13.03
2018-06-03T15:58:46.949Z,13.07
2018-06-03T16:01:15.769Z,14.87
2018-06-03T16:03:44.552Z,14.13
2018-06-03T16:06:13.344Z,13.10
2018-06-03T16:08:42.135Z,13.23
2018-06-03T16:11:10.923Z,11.83
2018-06-03T16:13:39.855Z,13.67
2018-06-03T16:16:08.575Z,12.77
2018-06-03T16:18:37.361Z,12.00
2018-06-03T16:21:06.158Z,13.13
2018-06-03T16:23:35.915Z,12.83
2018-06-03T16:26:04.805Z,13.07
2018-06-03T16:28:33.582Z,14.80
2018-06-03T16:31:02.487Z,16.63
2018-06-03T16:33:31.359Z,16.70
2018-06-03T16:35:59.781Z,14.90
2018-06-03T16:38:28.544Z,15.53
2018-06-03T16:40:57.349Z,15.17
2018-06-03T16:43:27.126Z,12.97
2018-06-03T16:45:56.677Z,12.20
2018-06-03T16:48:26.013Z,12.47
2018-06-03T16:50:55.093Z,13.00
2018-06-03T16:53:23.998Z,12.93
2018-06-03T16:55:52.755Z,11.50
2018-06-03T16:58:21.591Z,12.23
2018-06-03T17:00:50.381Z,12.73
2018-06-03T17:03:19.208Z,12.73
2018-06-03T17:05:47.986Z,13.93
2018-06-03T17:08:16.828Z,13.60
2018-06-03T17:10:45.688Z,13.83
2018-06-03T17:13:14.504Z,13.83
2018-06-03T17:15:43.266Z,12.93
2018-06-03T17:18:12.029Z,13.73
2018-06-03T17:20:40.825Z,13.80
2018-06-03T17:23:09.659Z,12.87
2018-06-03T17:25:38.454Z,14.33
2018-06-03T17:28:06.836Z,15.70
2018-06-03T17:30:35.711Z,12.53
2018-06-03T17:33:04.599Z,13.30
2018-06-03T17:35:33.362Z,13.93
2018-06-03T17:38:02.168Z,14.67
2018-06-03T17:40:31.788Z,15.40
2018-06-03T17:43:00.554Z,14.90
2018-06-03T17:45:29.322Z,14.57
2018-06-03T17:47:58.130Z,14.57
2018-06-03T17:50:26.988Z,14.80
2018-06-03T17:52:55.760Z,15.37
2018-06-03T17:55:24.579Z,15.50
2018-06-03T17:57:53.361Z,14.63
2018-06-03T18:00:22.174Z,16.37
2018-06-03T18:02:51.001Z,13.47
2018-06-03T18:05:19.773Z,15.40
2018-06-03T18:07:48.584Z,15.47
2018-06-03T18:10:17.433Z,15.60
2018-06-03T18:12:46.275Z,15.07
2018-06-03T18:15:14.993Z,16.97
2018-06-03T18:17:43.340Z,15.37
2018-06-03T18:20:12.184Z,17.27
2018-06-03T18:22:40.591Z,17.47
2018-06-03T18:25:09.373Z,16.13
2018-06-03T18:27:38.184Z,19.00
2018-06-03T18:30:07.026Z,16.60
2018-06-03T18:32:35.827Z,16.30
2018-06-03T18:35:04.250Z,18.00
2018-06-03T18:37:33.789Z,16.50
2018-06-03T18:40:02.553Z,14.50
2018-06-03T18:42:31.335Z,13.63
2018-06-03T18:45:00.328Z,19.17
2018-06-03T18:47:29.117Z,17.77
2018-06-03T18:49:57.875Z,14.33
2018-06-03T18:52:26.627Z,14.47
2018-06-03T18:54:55.411Z,13.70
2018-06-03T18:57:24.225Z,14.50
2018-06-03T18:59:53.023Z,16.87
2018-06-03T19:02:21.785Z,14.37
2018-06-03T19:04:50.559Z,14.90
2018-06-03T19:07:19.377Z,13.80
2018-06-03T19:09:48.126Z,14.63
2018-06-03T19:12:16.924Z,12.63
2018-06-03T19:14:45.708Z,14.73
2018-06-03T19:17:14.465Z,15.90
2018-06-03T19:19:43.235Z,14.37
2018-06-03T19:22:12.025Z,15.27
2018-06-03T19:24:40.911Z,15.00
2018-06-03T19:27:09.717Z,18.10
2018-06-03T19:29:38.530Z,19.40
2018-06-03T19:32:07.350Z,19.83
2018-06-03T19:34:36.109Z,18.50
2018-06-03T19:37:05.016Z,18.27
2018-06-03T19:39:33.851Z,19.13
2018-06-03T19:42:02.676Z,19.13
2018-06-03T19:44:31.494Z,17.33
2018-06-03T19:47:00.298Z,16.73
2018-06-03T19:49:29.117Z,17.80
2018-06-03T19:51:57.879Z,18.30
2018-06-03T19:54:26.648Z,19.17
2018-06-03T19:56:55.450Z,21.20
2018-06-03T19:59:24.250Z,21.20
2018-06-03T20:01:53.032Z,21.07
2018-06-03T20:04:22.647Z,20.53
2018-06-03T20:06:51.444Z,21.00
2018-06-03T20:09:20.252Z,16.90
2018-06-03T20:11:49.018Z,20.73
2018-06-03T20:14:17.781Z,19.33
2018-06-03T20:16:46.535Z,17.63
2018-06-03T20:19:15.333Z,18.60
2018-06-03T20:21:44.129Z,18.83
2018-06-03T20:24:12.919Z,17.47
2018-06-03T20:26:41.754Z,20.70
2018-06-03T20:29:10.519Z,19.50
2018-06-03T20:31:39.352Z,20.83
2018-06-03T20:34:08.261Z,29.00
2018-06-03T20:36:37.039Z,32.80
2018-06-03T20:39:07.312Z,29.13
2018-06-03T20:41:36.127Z,27.07
2018-06-03T20:44:04.903Z,27.10
2018-06-03T20:46:33.372Z,24.20
2018-06-03T20:49:02.266Z,21.10
2018-06-03T20:51:30.740Z,21.33
2018-06-03T20:53:59.589Z,23.73
2018-06-03T20:56:28.608Z,21.13
2018-06-03T20:58:57.519Z,20.00
2018-06-03T21:01:26.374Z,24.63
2018-06-03T21:03:55.214Z,24.67
2018-06-03T21:06:24.010Z,24.00
2018-06-03T21:08:52.859Z,22.07
2018-06-03T21:11:21.682Z,23.87
2018-06-03T21:13:50.541Z,26.70
2018-06-03T21:16:20.362Z,22.03
2018-06-03T21:18:49.157Z,24.07
2018-06-03T21:21:18.013Z,22.97
2018-06-03T21:23:46.872Z,24.60
2018-06-03T21:26:15.708Z,25.47
2018-06-03T21:28:44.472Z,22.90
2018-06-03T21:31:13.267Z,19.20
2018-06-03T21:33:42.059Z,22.33
2018-06-03T21:36:10.964Z,24.40
2018-06-03T21:38:39.794Z,32.57
2018-06-03T21:41:08.613Z,32.00
2018-06-03T21:43:37.418Z,30.97
2018-06-03T21:46:06.224Z,28.23
2018-06-03T21:48:35.079Z,31.10
2018-06-03T21:51:03.891Z,26.70
2018-06-03T21:53:32.736Z,21.43
2018-06-03T21:56:01.671Z,25.67
2018-06-03T21:58:30.578Z,23.47
2018-06-03T22:00:59.391Z,27.53
2018-06-03T22:03:28.213Z,25.93
2018-06-03T22:05:56.992Z,27.07
2018-06-03T22:08:25.893Z,24.23
2018-06-03T22:10:54.698Z,28.03
2018-06-03T22:13:23.495Z,22.40
2018-06-03T22:15:52.330Z,26.47
2018-06-03T22:18:21.074Z,23.03
2018-06-03T22:20:50.045Z,22.57
2018-06-03T22:23:18.914Z,22.83
2018-06-03T22:25:47.788Z,24.47
2018-06-03T22:28:16.586Z,23.93
2018-06-03T22:30:45.413Z,21.37
2018-06-03T22:33:14.239Z,23.40
2018-06-03T22:35:43.085Z,22.50
2018-06-03T22:38:11.879Z,23.70
2018-06-03T22:40:40.816Z,26.00
2018-06-03T22:43:09.666Z,23.00
2018-06-03T22:45:38.479Z,24.67
2018-06-03T22:48:07.300Z,27.23
2018-06-03T22:50:36.111Z,25.77
2018-06-03T22:53:04.938Z,24.50
2018-06-03T22:55:33.780Z,22.70
2018-06-03T22:58:02.584Z,25.63
2018-06-03T23:00:32.326Z,24.97
2018-06-03T23:03:06.377Z,29.63
2018-06-03T23:05:35.312Z,27.43
2018-06-03T23:08:04.150Z,28.93
2018-06-03T23:10:33.037Z,27.10
2018-06-03T23:13:01.814Z,27.87
2018-06-03T23:15:30.678Z,28.40
2018-06-03T23:17:59.479Z,29.40
2018-06-03T23:20:28.323Z,30.43
2018-06-03T23:22:57.143Z,29.00
2018-06-03T23:25:25.955Z,30.23
2018-06-03T23:27:54.754Z,31.27
2018-06-03T23:30:23.539Z,36.50
2018-06-03T23:32:52.460Z,29.67
2018-06-03T23:35:21.286Z,32.10
2018-06-03T23:37:50.079Z,32.70
2018-06-03T23:40:18.954Z,34.87
2018-06-03T23:42:47.846Z,35.83
2018-06-03T23:45:16.662Z,39.43
2018-06-03T23:47:46.331Z,39.50
2018-06-03T23:50:15.133Z,39.23
2018-06-03T23:52:43.955Z,41.77
2018-06-03T23:55:12.746Z,46.40
2018-06-03T23:57:41.559Z,48.37
